createdAt,value
2022-08-17T00:03:03.677Z,18.3
2022-08-17T00:08:49.957Z,18.2
2022-08-17T00:15:15.339Z,18
2022-08-17T00:23:12.865Z,17.9
2022-08-17T00:29:08.830Z,17.7
2022-08-17T00:36:06.377Z,17.5
2022-08-17T00:41:59.160Z,17.3
2022-08-17T00:47:38.457Z,17.2
2022-08-17T00:59:14.556Z,16.8
2022-08-17T01:05:15.928Z,16.6
2022-08-17T01:11:39.141Z,16.4
2022-08-17T01:17:05.200Z,16.3
2022-08-17T01:22:49.489Z,16.1
2022-08-17T01:29:09.145Z,15.9
2022-08-17T01:35:43.788Z,15.6
2022-08-17T01:41:20.375Z,15.5
2022-08-17T01:47:13.813Z,15.4
2022-08-17T01:52:51.107Z,15.2
2022-08-17T01:58:31.044Z,15.1
2022-08-17T02:04:55.352Z,14.9
2022-08-17T02:11:57.888Z,14.8
2022-08-17T02:18:11.062Z,14.7
2022-08-17T02:24:06.408Z,14.6
2022-08-17T02:31:17.738Z,14.5
2022-08-17T02:37:11.952Z,14.4
2022-08-17T02:42:53.918Z,14.3
2022-08-17T02:49:08.646Z,14.2
2022-08-17T02:55:46.257Z,14.1
2022-08-17T03:01:32.103Z,14
2022-08-17T03:07:09.091Z,13.9
2022-08-17T03:12:50.385Z,13.9
2022-08-17T03:18:01.794Z,13.8
2022-08-17T03:24:28.691Z,13.8
2022-08-17T03:30:16.158Z,13.7
2022-08-17T03:35:55.622Z,13.6
2022-08-17T03:42:48.695Z,13.6
2022-08-17T03:48:46.695Z,13.5
2022-08-17T03:54:25.257Z,13.4
2022-08-17T04:00:17.152Z,13.4
2022-08-17T04:06:00.593Z,13.4
2022-08-17T04:11:39.938Z,13.4
2022-08-17T04:17:10.845Z,13.4
2022-08-17T04:22:47.662Z,13.4
2022-08-17T04:28:54.384Z,13.5
2022-08-17T04:35:38.451Z,13.6
2022-08-17T04:41:21.902Z,13.7
2022-08-17T04:47:39.284Z,13.9
2022-08-17T04:53:54.826Z,14.1
2022-08-17T04:59:28.349Z,14.4
2022-08-17T05:05:29.156Z,14.8
2022-08-17T05:11:01.890Z,15.3
2022-08-17T05:16:56.003Z,15.8
2022-08-17T05:22:19.864Z,16.4
2022-08-17T05:28:54.264Z,17.3
2022-08-17T05:41:00.957Z,19.3
2022-08-17T05:47:06.049Z,20.6
2022-08-17T05:53:03.723Z,21.9
2022-08-17T05:59:11.184Z,23.4
2022-08-17T06:04:55.886Z,25
2022-08-17T06:10:40.933Z,30.1
2022-08-17T06:16:50.634Z,29.9
2022-08-17T06:22:41.162Z,30.5
2022-08-17T06:28:13.802Z,30.9
2022-08-17T06:34:06.929Z,31.4
2022-08-17T06:40:06.259Z,31.9
2022-08-17T06:47:07.494Z,32.4
2022-08-17T06:53:20.297Z,33
2022-08-17T06:59:36.321Z,33.6
2022-08-17T07:05:56.026Z,34.2
2022-08-17T07:11:39.752Z,34.7
2022-08-17T07:17:18.265Z,35.3
2022-08-17T07:23:38.114Z,35.9
2022-08-17T07:29:36.257Z,36.4
2022-08-17T07:35:16.848Z,37
2022-08-17T07:42:13.711Z,37.7
2022-08-17T07:47:54.858Z,38.3
2022-08-17T07:54:31.069Z,38.9
2022-08-17T08:00:33.082Z,39.5
2022-08-17T08:07:01.449Z,40.1
2022-08-17T08:12:33.576Z,40.6
2022-08-17T08:18:38.872Z,41.2
2022-08-17T08:25:18.204Z,41.8
2022-08-17T08:30:49.589Z,42.1
2022-08-17T08:38:14.695Z,42.6
2022-08-17T08:43:53.143Z,42.9
2022-08-17T08:51:47.179Z,43.3
2022-08-17T08:57:56.994Z,43.6
2022-08-17T09:05:29.416Z,43.9
2022-08-17T09:12:01.719Z,44.1
2022-08-17T09:17:43.053Z,44.4
2022-08-17T09:24:40.118Z,44.8
2022-08-17T09:30:18.639Z,45.1
2022-08-17T09:36:15.187Z,45.3
2022-08-17T09:42:05.344Z,45.6
2022-08-17T09:47:50.105Z,45.7
2022-08-17T09:54:37.392Z,46
2022-08-17T10:00:49.908Z,46.3
2022-08-17T10:06:38.675Z,46.4
2022-08-17T10:12:33.294Z,46.6
2022-08-17T10:18:53.050Z,47
2022-08-17T10:25:53.863Z,47.1
2022-08-17T10:32:34.025Z,47.3
2022-08-17T10:38:16.616Z,47.6
2022-08-17T10:44:56.630Z,47.9
2022-08-17T10:51:19.882Z,48.3
2022-08-17T10:57:02.221Z,48.4
2022-08-17T11:02:45.565Z,48.5
2022-08-17T11:08:22.666Z,48.8
2022-08-17T11:14:01.169Z,49.1
2022-08-17T11:19:45.009Z,49.4
2022-08-17T11:25:25.596Z,49.1
2022-08-17T11:31:13.556Z,49.7
2022-08-17T11:37:04.537Z,49.4
2022-08-17T11:42:33.180Z,49.1
2022-08-17T11:48:40.188Z,49.4
2022-08-17T11:54:51.044Z,49.5
2022-08-17T12:00:54.332Z,49.7
2022-08-17T12:06:30.620Z,50
2022-08-17T12:12:52.077Z,49.5
2022-08-17T12:19:42.447Z,48.9
2022-08-17T12:25:27.964Z,49
2022-08-17T12:32:12.818Z,49.8
2022-08-17T12:37:42.784Z,50.1
2022-08-17T12:43:51.413Z,50.1
2022-08-17T12:49:53.703Z,49.9
2022-08-17T12:55:55.661Z,50.2
2022-08-17T13:01:48.932Z,50.3
2022-08-17T13:07:37.828Z,50.3
2022-08-17T13:13:26.215Z,50.4
2022-08-17T13:19:14.692Z,50.2
2022-08-17T13:24:55.046Z,49.8
2022-08-17T13:30:37.623Z,49.4
2022-08-17T13:37:31.907Z,49.1
2022-08-17T13:43:09.381Z,48.8
2022-08-17T13:49:17.604Z,49
2022-08-17T13:55:18.041Z,49.1
2022-08-17T14:01:55.664Z,49
2022-08-17T14:08:06.454Z,48.9
2022-08-17T14:13:49.636Z,48.7
2022-08-17T14:20:23.653Z,48.6
2022-08-17T14:26:12.267Z,48.4
2022-08-17T14:32:32.038Z,48.1
2022-08-17T14:38:15.606Z,47.9
2022-08-17T14:43:56.856Z,47.7
2022-08-17T14:49:51.772Z,47.4
2022-08-17T14:55:45.028Z,47.3
2022-08-17T15:01:56.291Z,47
2022-08-17T15:07:20.441Z,46.8
2022-08-17T15:13:09.385Z,46.5
2022-08-17T15:19:21.932Z,46.2
2022-08-17T15:25:03.756Z,45.9
2022-08-17T15:30:55.943Z,45.6
2022-08-17T15:36:38.058Z,45.4
2022-08-17T15:42:36.612Z,45
2022-08-17T15:48:19.177Z,44.7
2022-08-17T15:53:57.407Z,44.4
2022-08-17T15:59:46.801Z,44.1
2022-08-17T16:08:37.872Z,43.5
2022-08-17T16:14:33.996Z,43.2
2022-08-17T16:20:37.692Z,42.8
2022-08-17T16:26:47.353Z,42.5
2022-08-17T16:32:48.025Z,42.2
2022-08-17T16:38:56.698Z,41.8
2022-08-17T16:44:34.939Z,41.6
2022-08-17T16:50:30.561Z,41.3
2022-08-17T16:56:35.272Z,40.9
2022-08-17T17:02:47.720Z,40.1
2022-08-17T17:09:00.849Z,38.9
2022-08-17T17:15:02.806Z,37.8
2022-08-17T17:20:53.616Z,36.8
2022-08-17T17:26:34.068Z,35.8
2022-08-17T17:32:22.261Z,34.4
2022-08-17T17:38:03.184Z,33.3
2022-08-17T17:44:19.787Z,32.2
2022-08-17T17:50:26.294Z,31.3
2022-08-17T17:57:38.794Z,30.3
2022-08-17T18:03:16.304Z,29.6
2022-08-17T18:09:12.443Z,28.9
2022-08-17T18:15:31.709Z,28.2
2022-08-17T18:21:31.772Z,27.6
2022-08-17T18:27:11.898Z,27.1
2022-08-17T18:32:43.178Z,26.6
2022-08-17T18:38:58.031Z,26.1
2022-08-17T18:44:50.593Z,25.6
2022-08-17T18:50:48.914Z,25.2
2022-08-17T18:56:36.814Z,24.8
2022-08-17T19:02:45.464Z,24.5
2022-08-17T19:08:14.830Z,24.1
2022-08-17T19:13:41.130Z,23.9
2022-08-17T19:19:26.081Z,23.6
2022-08-17T19:25:12.644Z,23.4
2022-08-17T19:31:55.730Z,23.1
2022-08-17T19:37:25.242Z,22.9
2022-08-17T19:43:28.209Z,22.8
2022-08-17T19:49:49.669Z,22.6
2022-08-17T19:55:53.622Z,22.4
2022-08-17T20:01:37.895Z,22.2
2022-08-17T20:07:52.344Z,22.1
2022-08-17T20:13:33.054Z,21.9
2022-08-17T20:19:25.881Z,21.8
2022-08-17T20:25:30.217Z,21.7
2022-08-17T20:31:07.819Z,21.6
2022-08-17T20:36:38.498Z,21.4
2022-08-17T20:42:19.421Z,21.3
2022-08-17T20:47:27.442Z,21.2
2022-08-17T20:53:44.109Z,21
2022-08-17T20:59:16.050Z,20.8
2022-08-17T21:05:01.314Z,20.7
2022-08-17T21:10:35.279Z,20.5
2022-08-17T21:16:50.859Z,20.3
2022-08-17T21:22:53.739Z,20.1
2022-08-17T21:28:36.279Z,19.9
2022-08-17T21:35:02.397Z,19.7
2022-08-17T21:40:34.389Z,19.4
2022-08-17T21:46:15.115Z,19.3
2022-08-17T21:51:57.038Z,19.1
2022-08-17T21:57:18.352Z,18.9
2022-08-17T22:08:42.289Z,18.5
2022-08-17T22:14:21.758Z,18.4
2022-08-17T22:20:26.854Z,18.3
2022-08-17T22:26:09.648Z,18.2
2022-08-17T22:31:55.339Z,18
2022-08-17T22:37:44.086Z,17.9
2022-08-17T22:43:26.113Z,17.8
2022-08-17T22:49:05.467Z,17.7
2022-08-17T22:54:57.057Z,17.6
2022-08-17T23:00:27.164Z,17.5
2022-08-17T23:06:20.221Z,17.4
2022-08-17T23:12:14.383Z,17.3
2022-08-17T23:18:03.660Z,17.2
2022-08-17T23:23:31.303Z,17.1
2022-08-17T23:28:54.237Z,16.9
2022-08-17T23:34:05.082Z,16.8
2022-08-17T23:40:04.975Z,16.8
2022-08-17T23:45:41.903Z,16.6
2022-08-17T23:51:29.159Z,16.5
2022-08-17T23:57:20.882Z,16.4
